Time,TemperatureF,DewpointF,PressureIn,WindDirection,WindDirectionDegrees,WindSpeedMPH,WindSpeedGustMPH,Humidity,HourlyPrecipIn,Conditions,Clouds,dailyrainin,SoftwareType,DateUTC
2013-04-22 00:00:00,40.4,38.3,30.17,WNW,291,0.0,0.0,92,0.00,,,0.00,VWS V14.01,2013-04-22 05:00:00,
2013-04-22 00:05:00,40.3,37.9,30.17,WNW,291,1.0,2.0,91,0.00,,,0.00,VWS V14.01,2013-04-22 05:05:00,
2013-04-22 00:10:00,40.2,37.8,30.17,NW,325,4.0,7.0,91,0.00,,,0.00,VWS V14.01,2013-04-22 05:10:00,
2013-04-22 00:15:00,40.1,37.7,30.18,WNW,294,2.0,5.0,91,0.00,,,0.00,VWS V14.01,2013-04-22 05:15:00,
2013-04-22 00:20:00,40.1,37.7,30.18,NW,310,1.0,5.0,91,0.00,,,0.00,VWS V14.01,2013-04-22 05:20:00,
2013-04-22 00:25:00,40.0,37.6,30.18,WNW,297,0.0,5.0,91,0.00,,,0.00,VWS V14.01,2013-04-22 05:25:00,
2013-04-22 00:30:00,40.0,37.6,30.18,WNW,283,2.0,4.0,91,0.00,,,0.00,VWS V14.01,2013-04-22 05:30:00,
2013-04-22 00:35:00,39.8,37.4,30.18,WNW,290,1.0,5.0,91,0.00,,,0.00,VWS V14.01,2013-04-22 05:35:00,
2013-04-22 00:40:00,39.6,37.2,30.18,WNW,300,2.0,6.0,91,0.00,,,0.00,VWS V14.01,2013-04-22 05:40:00,
2013-04-22 00:45:00,39.4,37.0,30.19,NW,310,2.0,5.0,91,0.00,,,0.00,VWS V14.01,2013-04-22 05:45:00,
2013-04-22 00:50:00,39.3,36.9,30.19,WNW,297,4.0,5.0,91,0.00,,,0.00,VWS V14.01,2013-04-22 05:50:00,
2013-04-22 00:55:00,39.1,36.7,30.19,West,280,1.0,5.0,91,0.00,,,0.00,VWS V14.01,2013-04-22 05:55:00,
2013-04-22 01:00:00,39.0,36.6,30.19,WNW,294,0.0,5.0,91,0.00,,,0.00,VWS V14.01,2013-04-22 06:00:00,
2013-04-22 01:01:00,39.0,36.6,30.19,WSW,252,0.0,5.0,91,0.00,,,0.00,VWS V14.01,2013-04-22 06:01:00,
2013-04-22 01:06:00,38.9,36.5,30.20,NW,316,1.0,5.0,91,0.00,,,0.00,VWS V14.01,2013-04-22 06:06:00,
2013-04-22 01:11:00,38.8,36.4,30.19,West,265,2.0,5.0,91,0.00,,,0.00,VWS V14.01,2013-04-22 06:11:00,
2013-04-22 01:15:00,38.8,36.4,30.19,West,277,0.0,5.0,91,0.00,,,0.00,VWS V14.01,2013-04-22 06:15:00,
2013-04-22 01:16:00,38.7,36.3,30.19,West,277,0.0,2.0,91,0.00,,,0.00,VWS V14.01,2013-04-22 06:16:00,
2013-04-22 01:21:00,38.6,36.5,30.19,West,277,2.0,2.0,92,0.00,,,0.00,VWS V14.01,2013-04-22 06:21:00,
2013-04-22 01:26:00,38.5,36.1,30.19,West,277,0.0,2.0,91,0.00,,,0.00,VWS V14.01,2013-04-22 06:26:00,
2013-04-22 01:30:00,38.4,36.0,30.18,West,277,0.0,2.0,91,0.00,,,0.00,VWS V14.01,2013-04-22 06:30:00,
2013-04-22 01:31:00,38.3,35.9,30.18,West,277,1.0,1.0,91,0.00,,,0.00,VWS V14.01,2013-04-22 06:31:00,
2013-04-22 01:36:00,38.2,36.1,30.18,West,277,0.0,2.0,92,0.00,,,0.00,VWS V14.01,2013-04-22 06:36:00,
2013-04-22 01:41:00,38.1,36.0,30.18,West,277,0.0,2.0,92,0.00,,,0.00,VWS V14.01,2013-04-22 06:41:00,
2013-04-22 01:45:00,38.0,35.9,30.18,West,277,2.0,2.0,92,0.00,,,0.00,VWS V14.01,2013-04-22 06:45:00,
2013-04-22 01:46:00,38.0,35.9,30.18,West,277,0.0,3.0,92,0.00,,,0.00,VWS V14.01,2013-04-22 06:46:00,
2013-04-22 01:51:00,37.8,35.7,30.18,West,277,0.0,3.0,92,0.00,,,0.00,VWS V14.01,2013-04-22 06:51:00,
2013-04-22 01:56:00,37.8,35.7,30.18,West,277,0.0,3.0,92,0.00,,,0.00,VWS V14.01,2013-04-22 06:56:00,
2013-04-22 02:00:00,37.7,35.9,30.18,West,277,0.0,3.0,93,0.00,,,0.00,VWS V14.01,2013-04-22 07:00:00,
2013-04-22 02:01:00,37.7,35.9,30.18,West,277,0.0,3.0,93,0.00,,,0.00,VWS V14.01,2013-04-22 07:01:00,
2013-04-22 02:06:00,37.7,35.9,30.19,West,277,0.0,3.0,93,0.00,,,0.00,VWS V14.01,2013-04-22 07:06:00,
2013-04-22 02:11:00,37.7,35.9,30.18,West,277,0.0,3.0,93,0.00,,,0.00,VWS V14.01,2013-04-22 07:11:00,
2013-04-22 02:15:00,37.5,35.7,30.18,West,277,1.0,3.0,93,0.00,,,0.00,VWS V14.01,2013-04-22 07:15:00,
2013-04-22 02:17:00,37.5,35.7,30.19,West,278,1.0,3.0,93,0.00,,,0.00,VWS V14.01,2013-04-22 07:17:00,
2013-04-22 02:22:00,37.4,35.6,30.18,West,278,2.0,3.0,93,0.00,,,0.00,VWS V14.01,2013-04-22 07:22:00,
2013-04-22 02:27:00,37.3,35.5,30.18,West,278,0.0,3.0,93,0.00,,,0.00,VWS V14.01,2013-04-22 07:27:00,
2013-04-22 02:30:00,37.3,35.5,30.18,West,278,1.0,3.0,93,0.00,,,0.00,VWS V14.01,2013-04-22 07:30:00,
2013-04-22 02:32:00,37.2,35.6,30.18,West,278,0.0,2.0,94,0.00,,,0.00,VWS V14.01,2013-04-22 07:32:00,
2013-04-22 02:37:00,37.2,35.6,30.18,West,278,0.0,2.0,94,0.00,,,0.00,VWS V14.01,2013-04-22 07:37:00,
2013-04-22 02:42:00,37.2,35.6,30.19,West,278,1.0,2.0,94,0.00,,,0.00,VWS V14.01,2013-04-22 07:42:00,
2013-04-22 02:45:00,37.2,35.6,30.19,West,278,0.0,2.0,94,0.00,,,0.00,VWS V14.01,2013-04-22 07:45:00,
2013-04-22 02:47:00,37.2,35.6,30.19,West,278,0.0,1.0,94,0.00,,,0.00,VWS V14.01,2013-04-22 07:47:00,
2013-04-22 02:52:00,37.2,35.6,30.20,West,278,1.0,3.0,94,0.00,,,0.00,VWS V14.01,2013-04-22 07:52:00,
2013-04-22 02:57:00,37.2,35.6,30.20,West,278,0.0,3.0,94,0.00,,,0.00,VWS V14.01,2013-04-22 07:57:00,
2013-04-22 03:00:00,37.2,35.6,30.20,West,278,0.0,3.0,94,0.00,,,0.00,VWS V14.01,2013-04-22 08:00:00,
2013-04-22 03:02:00,37.1,35.5,30.20,West,278,0.0,1.0,94,0.00,,,0.00,VWS V14.01,2013-04-22 08:02:00,
2013-04-22 03:07:00,37.2,35.6,30.20,West,278,0.0,1.0,94,0.00,,,0.00,VWS V14.01,2013-04-22 08:07:00,
2013-04-22 03:12:00,37.2,35.6,30.20,West,278,0.0,1.0,94,0.00,,,0.00,VWS V14.01,2013-04-22 08:12:00,
2013-04-22 03:15:00,37.2,35.6,30.20,West,278,0.0,1.0,94,0.00,,,0.00,VWS V14.01,2013-04-22 08:15:00,
2013-04-22 03:18:00,37.1,35.5,30.20,West,278,0.0,1.0,94,0.00,,,0.00,VWS V14.01,2013-04-22 08:18:00,
2013-04-22 03:23:00,37.0,35.4,30.20,West,278,0.0,1.0,94,0.00,,,0.00,VWS V14.01,2013-04-22 08:23:00,
2013-04-22 03:28:00,37.0,35.4,30.20,West,278,0.0,2.0,94,0.00,,,0.00,VWS V14.01,2013-04-22 08:28:00,
2013-04-22 03:30:00,37.0,35.4,30.20,West,278,2.0,2.0,94,0.00,,,0.00,VWS V14.01,2013-04-22 08:30:00,
2013-04-22 03:33:00,36.9,35.3,30.20,West,278,0.0,2.0,94,0.00,,,0.00,VWS V14.01,2013-04-22 08:33:00,
2013-04-22 03:38:00,36.8,35.5,30.20,NW,312,2.0,3.0,95,0.00,,,0.00,VWS V14.01,2013-04-22 08:38:00,
2013-04-22 03:43:00,36.6,35.3,30.20,NNW,333,2.0,4.0,95,0.00,,,0.00,VWS V14.01,2013-04-22 08:43:00,
2013-04-22 03:45:00,36.6,35.3,30.20,NNW,334,1.0,4.0,95,0.00,,,0.00,VWS V14.01,2013-04-22 08:45:00,
2013-04-22 03:48:00,36.5,35.2,30.20,NNW,334,0.0,2.0,95,0.00,,,0.00,VWS V14.01,2013-04-22 08:48:00,
2013-04-22 03:53:00,36.4,34.8,30.20,NNW,343,1.0,3.0,94,0.00,,,0.00,VWS V14.01,2013-04-22 08:53:00,
2013-04-22 03:58:00,36.3,34.7,30.19,NNW,341,1.0,3.0,94,0.00,,,0.00,VWS V14.01,2013-04-22 08:58:00,
2013-04-22 04:00:00,36.2,34.6,30.19,NNW,341,2.0,3.0,94,0.00,,,0.00,VWS V14.01,2013-04-22 09:00:00,
2013-04-22 04:03:00,36.2,34.9,30.19,North,355,0.0,3.0,95,0.00,,,0.00,VWS V14.01,2013-04-22 09:03:00,
2013-04-22 04:08:00,36.2,34.9,30.19,North,355,0.0,3.0,95,0.00,,,0.00,VWS V14.01,2013-04-22 09:08:00,
2013-04-22 04:13:00,36.1,34.8,30.19,NNE,21,0.0,4.0,95,0.00,,,0.00,VWS V14.01,2013-04-22 09:13:00,
2013-04-22 04:15:00,36.1,34.8,30.19,NNE,21,0.0,4.0,95,0.00,,,0.00,VWS V14.01,2013-04-22 09:15:00,
2013-04-22 04:18:00,36.1,34.8,30.19,NNE,21,2.0,3.0,95,0.00,,,0.00,VWS V14.01,2013-04-22 09:18:00,
2013-04-22 04:24:00,36.1,34.8,30.19,NNE,21,0.0,3.0,95,0.00,,,0.00,VWS V14.01,2013-04-22 09:24:00,
2013-04-22 04:29:00,36.0,34.4,30.19,NNE,23,0.0,3.0,94,0.00,,,0.00,VWS V14.01,2013-04-22 09:29:00,
2013-04-22 04:30:00,36.0,34.4,30.19,NNE,23,0.0,3.0,94,0.00,,,0.00,VWS V14.01,2013-04-22 09:30:00,
2013-04-22 04:34:00,35.9,34.3,30.19,North,355,2.0,4.0,94,0.00,,,0.00,VWS V14.01,2013-04-22 09:34:00,
2013-04-22 04:39:00,35.9,34.3,30.20,NNE,22,2.0,4.0,94,0.00,,,0.00,VWS V14.01,2013-04-22 09:39:00,
2013-04-22 04:44:00,35.9,34.1,30.20,NNE,22,0.0,1.0,93,0.00,,,0.00,VWS V14.01,2013-04-22 09:44:00,
2013-04-22 04:45:00,35.9,34.1,30.20,NNE,22,0.0,4.0,93,0.00,,,0.00,VWS V14.01,2013-04-22 09:45:00,
2013-04-22 04:49:00,35.9,34.1,30.20,NNE,24,0.0,3.0,93,0.00,,,0.00,VWS V14.01,2013-04-22 09:49:00,
2013-04-22 04:54:00,35.9,34.1,30.21,NNE,24,0.0,3.0,93,0.00,,,0.00,VWS V14.01,2013-04-22 09:54:00,
2013-04-22 04:59:00,35.8,34.0,30.21,NNE,24,2.0,3.0,93,0.00,,,0.00,VWS V14.01,2013-04-22 09:59:00,
2013-04-22 05:00:00,35.8,34.0,30.21,NNE,24,1.0,3.0,93,0.00,,,0.00,VWS V14.01,2013-04-22 10:00:00,
2013-04-22 05:04:00,35.8,34.0,30.21,NNE,19,2.0,4.0,93,0.00,,,0.00,VWS V14.01,2013-04-22 10:04:00,
2013-04-22 05:09:00,35.8,34.0,30.21,NNE,19,2.0,4.0,93,0.00,,,0.00,VWS V14.01,2013-04-22 10:09:00,
2013-04-22 05:15:00,35.7,33.9,30.21,North,360,3.0,5.0,93,0.00,,,0.00,VWS V14.01,2013-04-22 10:15:00,
2013-04-22 05:20:00,35.6,33.8,30.21,NNE,23,4.0,5.0,93,0.00,,,0.00,VWS V14.01,2013-04-22 10:20:00,
2013-04-22 05:25:00,35.6,33.8,30.20,NE,49,1.0,5.0,93,0.00,,,0.00,VWS V14.01,2013-04-22 10:25:00,
2013-04-22 05:30:00,35.5,33.7,30.21,NNE,32,3.0,4.0,93,0.00,,,0.00,VWS V14.01,2013-04-22 10:30:00,
2013-04-22 05:35:00,35.5,33.4,30.21,NNE,19,2.0,5.0,92,0.00,,,0.00,VWS V14.01,2013-04-22 10:35:00,
2013-04-22 05:40:00,35.5,33.4,30.21,NNE,15,2.0,6.0,92,0.00,,,0.00,VWS V14.01,2013-04-22 10:40:00,
2013-04-22 05:45:00,35.6,33.5,30.21,NNE,15,4.0,4.0,92,0.00,,,0.00,VWS V14.01,2013-04-22 10:45:00,
2013-04-22 05:50:00,35.6,33.5,30.21,ENE,63,3.0,5.0,92,0.00,,,0.00,VWS V14.01,2013-04-22 10:50:00,
2013-04-22 05:55:00,35.6,33.5,30.21,ENE,60,4.0,5.0,92,0.00,,,0.00,VWS V14.01,2013-04-22 10:55:00,
2013-04-22 06:00:00,35.5,33.4,30.21,ENE,58,2.0,4.0,92,0.00,,,0.00,VWS V14.01,2013-04-22 11:00:00,
2013-04-22 06:05:00,35.6,33.5,30.22,NE,53,3.0,4.0,92,0.00,,,0.00,VWS V14.01,2013-04-22 11:05:00,
2013-04-22 06:10:00,35.6,33.5,30.22,NE,49,2.0,6.0,92,0.00,,,0.00,VWS V14.01,2013-04-22 11:10:00,
2013-04-22 06:15:00,35.6,33.5,30.22,NE,47,3.0,3.0,92,0.00,,,0.00,VWS V14.01,2013-04-22 11:15:00,
2013-04-22 06:21:00,35.6,33.5,30.21,NE,49,2.0,6.0,92,0.00,,,0.00,VWS V14.01,2013-04-22 11:21:00,
2013-04-22 06:26:00,35.6,33.5,30.22,ENE,59,0.0,6.0,92,0.00,,,0.00,VWS V14.01,2013-04-22 11:26:00,
2013-04-22 06:30:00,35.6,33.5,30.22,ENE,59,1.0,6.0,92,0.00,,,0.00,VWS V14.01,2013-04-22 11:30:00,
2013-04-22 06:31:00,35.6,33.5,30.22,ENE,67,2.0,4.0,92,0.00,,,0.00,VWS V14.01,2013-04-22 11:31:00,
2013-04-22 06:36:00,35.6,33.5,30.22,NE,41,3.0,4.0,92,0.00,,,0.00,VWS V14.01,2013-04-22 11:36:00,
2013-04-22 06:41:00,35.7,33.6,30.22,North,355,3.0,4.0,92,0.00,,,0.00,VWS V14.01,2013-04-22 11:41:00,
2013-04-22 06:45:00,35.7,33.6,30.22,North,360,3.0,4.0,92,0.00,,,0.00,VWS V14.01,2013-04-22 11:45:00,
2013-04-22 06:46:00,35.7,33.6,30.22,NNE,33,2.0,4.0,92,0.00,,,0.00,VWS V14.01,2013-04-22 11:46:00,
2013-04-22 06:51:00,35.8,33.7,30.22,NNE,16,3.0,5.0,92,0.00,,,0.00,VWS V14.01,2013-04-22 11:51:00,
2013-04-22 06:56:00,35.8,33.7,30.22,ENE,59,3.0,6.0,92,0.00,,,0.00,VWS V14.01,2013-04-22 11:56:00,
2013-04-22 07:00:00,35.8,33.7,30.22,ENE,59,3.0,6.0,92,0.00,,,0.00,VWS V14.01,2013-04-22 12:00:00,
2013-04-22 07:01:00,35.8,33.7,30.22,ENE,57,2.0,3.0,92,0.00,,,0.00,VWS V14.01,2013-04-22 12:01:00,
2013-04-22 07:06:00,35.8,33.7,30.21,NE,46,4.0,7.0,92,0.00,,,0.00,VWS V14.01,2013-04-22 12:06:00,
2013-04-22 07:11:00,35.8,33.4,30.21,NE,39,3.0,7.0,91,0.00,,,0.00,VWS V14.01,2013-04-22 12:11:00,
2013-04-22 07:15:00,35.8,33.4,30.21,NE,39,2.0,7.0,91,0.00,,,0.00,VWS V14.01,2013-04-22 12:15:00,
2013-04-22 07:16:00,35.8,33.4,30.21,NE,38,4.0,6.0,91,0.00,,,0.00,VWS V14.01,2013-04-22 12:16:00,
2013-04-22 07:21:00,35.9,33.3,30.22,ENE,64,3.0,6.0,90,0.00,,,0.00,VWS V14.01,2013-04-22 12:21:00,
2013-04-22 07:26:00,35.9,33.0,30.22,NE,48,4.0,10.0,89,0.00,,,0.00,VWS V14.01,2013-04-22 12:26:00,
2013-04-22 07:30:00,35.9,33.0,30.22,NE,53,3.0,10.0,89,0.00,,,0.00,VWS V14.01,2013-04-22 12:30:00,
2013-04-22 07:32:00,35.9,32.7,30.22,ENE,65,3.0,6.0,88,0.00,,,0.00,VWS V14.01,2013-04-22 12:32:00,
2013-04-22 07:37:00,36.0,32.8,30.22,NE,51,4.0,6.0,88,0.00,,,0.00,VWS V14.01,2013-04-22 12:37:00,
2013-04-22 07:42:00,36.0,32.5,30.22,NE,43,8.0,11.0,87,0.00,,,0.00,VWS V14.01,2013-04-22 12:42:00,
2013-04-22 07:45:00,36.0,32.5,30.22,ENE,65,4.0,11.0,87,0.00,,,0.00,VWS V14.01,2013-04-22 12:45:00,
2013-04-22 07:47:00,36.0,32.5,30.22,East,82,4.0,11.0,87,0.00,,,0.00,VWS V14.01,2013-04-22 12:47:00,
2013-04-22 07:52:00,36.0,31.9,30.22,NE,55,1.0,11.0,85,0.00,,,0.00,VWS V14.01,2013-04-22 12:52:00,
2013-04-22 07:57:00,36.1,32.0,30.22,NE,55,5.0,11.0,85,0.00,,,0.00,VWS V14.01,2013-04-22 12:57:00,
2013-04-22 08:00:00,36.2,32.1,30.22,ENE,67,1.0,11.0,85,0.00,,,0.00,VWS V14.01,2013-04-22 13:00:00,
2013-04-22 08:02:00,36.6,33.7,30.21,ENE,64,2.0,7.0,89,0.00,,,0.00,VWS V14.01,2013-04-22 13:02:00,
2013-04-22 08:07:00,37.0,32.0,30.21,NE,53,7.0,10.0,82,0.00,,,0.00,VWS V14.01,2013-04-22 13:07:00,
2013-04-22 08:12:00,37.1,32.1,30.22,ENE,71,5.0,11.0,82,0.00,,,0.00,VWS V14.01,2013-04-22 13:12:00,
2013-04-22 08:15:00,37.0,32.0,30.22,East,97,5.0,11.0,82,0.00,,,0.00,VWS V14.01,2013-04-22 13:15:00,
2013-04-22 08:17:00,37.0,32.0,30.21,ENE,64,5.0,7.0,82,0.00,,,0.00,VWS V14.01,2013-04-22 13:17:00,
2013-04-22 08:22:00,37.0,32.0,30.21,NNE,31,6.0,7.0,82,0.00,,,0.00,VWS V14.01,2013-04-22 13:22:00,
2013-04-22 08:28:00,37.0,32.0,30.21,ENE,58,3.0,11.0,82,0.00,,,0.00,VWS V14.01,2013-04-22 13:28:00,
2013-04-22 08:30:00,37.0,32.0,30.21,East,80,6.0,11.0,82,0.00,,,0.00,VWS V14.01,2013-04-22 13:30:00,
2013-04-22 08:33:00,37.1,32.1,30.20,NE,43,5.0,8.0,82,0.00,,,0.00,VWS V14.01,2013-04-22 13:33:00,
2013-04-22 08:38:00,37.2,31.9,30.21,East,98,6.0,8.0,81,0.00,,,0.00,VWS V14.01,2013-04-22 13:38:00,
2013-04-22 08:43:00,37.3,31.7,30.21,ENE,65,8.0,8.0,80,0.00,,,0.00,VWS V14.01,2013-04-22 13:43:00,
2013-04-22 08:45:00,37.2,31.6,30.21,ENE,75,3.0,11.0,80,0.00,,,0.00,VWS V14.01,2013-04-22 13:45:00,
2013-04-22 08:48:00,37.2,31.6,30.21,NE,47,8.0,10.0,80,0.00,,,0.00,VWS V14.01,2013-04-22 13:48:00,
2013-04-22 08:53:00,37.1,31.2,30.21,ENE,78,6.0,14.0,79,0.00,,,0.00,VWS V14.01,2013-04-22 13:53:00,
2013-04-22 08:58:00,37.2,31.6,30.21,East,80,3.0,14.0,80,0.00,,,0.00,VWS V14.01,2013-04-22 13:58:00,
2013-04-22 09:00:00,37.2,31.6,30.21,NE,56,4.0,14.0,80,0.00,,,0.00,VWS V14.01,2013-04-22 14:00:00,
2013-04-22 09:03:00,37.2,31.6,30.21,NE,55,5.0,10.0,80,0.00,,,0.00,VWS V14.01,2013-04-22 14:03:00,
2013-04-22 09:08:00,37.2,31.6,30.21,NE,54,5.0,10.0,80,0.00,,,0.00,VWS V14.01,2013-04-22 14:08:00,
2013-04-22 09:13:00,37.3,31.7,30.21,NE,50,4.0,10.0,80,0.00,,,0.00,VWS V14.01,2013-04-22 14:13:00,
2013-04-22 09:15:00,37.3,31.7,30.21,NE,41,5.0,10.0,80,0.00,,,0.00,VWS V14.01,2013-04-22 14:15:00,
2013-04-22 09:19:00,37.5,31.6,30.21,ENE,63,5.0,10.0,79,0.00,,,0.00,VWS V14.01,2013-04-22 14:19:00,
2013-04-22 09:24:00,37.5,31.6,30.20,East,81,5.0,11.0,79,0.00,,,0.00,VWS V14.01,2013-04-22 14:24:00,
2013-04-22 09:29:00,37.6,31.7,30.20,NE,39,5.0,12.0,79,0.00,,,0.00,VWS V14.01,2013-04-22 14:29:00,
2013-04-22 09:30:00,37.6,31.7,30.20,NE,39,5.0,12.0,79,0.00,,,0.00,VWS V14.01,2013-04-22 14:30:00,
2013-04-22 09:34:00,38.1,32.5,30.20,NE,36,9.0,11.0,80,0.00,,,0.00,VWS V14.01,2013-04-22 14:34:00,
2013-04-22 09:39:00,38.4,32.5,30.20,ENE,59,3.0,11.0,79,0.00,,,0.00,VWS V14.01,2013-04-22 14:39:00,
2013-04-22 09:44:00,38.6,32.7,30.20,NE,45,8.0,8.0,79,0.00,,,0.00,VWS V14.01,2013-04-22 14:44:00,
2013-04-22 09:45:00,38.6,32.7,30.20,NE,56,5.0,12.0,79,0.00,,,0.00,VWS V14.01,2013-04-22 14:45:00,
2013-04-22 09:49:00,38.5,32.2,30.21,NE,47,8.0,10.0,78,0.00,,,0.00,VWS V14.01,2013-04-22 14:49:00,
2013-04-22 09:54:00,38.6,32.7,30.21,ENE,61,3.0,11.0,79,0.00,,,0.00,VWS V14.01,2013-04-22 14:54:00,
2013-04-22 09:59:00,39.3,33.3,30.21,NE,56,2.0,5.0,79,0.00,,,0.00,VWS V14.01,2013-04-22 14:59:00,
2013-04-22 10:00:00,39.2,33.2,30.21,ENE,70,3.0,11.0,79,0.00,,,0.00,VWS V14.01,2013-04-22 15:00:00,
2013-04-22 10:04:00,40.3,34.0,30.22,NE,54,2.0,8.0,78,0.00,,,0.00,VWS V14.01,2013-04-22 15:04:00,
2013-04-22 10:09:00,41.1,34.8,30.22,ENE,71,3.0,8.0,78,0.00,,,0.00,VWS V14.01,2013-04-22 15:09:00,
2013-04-22 10:14:00,41.6,34.6,30.22,NE,49,3.0,5.0,76,0.00,,,0.00,VWS V14.01,2013-04-22 15:14:00,
2013-04-22 10:15:00,41.6,34.3,30.22,NE,55,4.0,8.0,75,0.00,,,0.00,VWS V14.01,2013-04-22 15:15:00,
2013-04-22 10:19:00,40.8,33.5,30.22,ENE,58,1.0,7.0,75,0.00,,,0.00,VWS V14.01,2013-04-22 15:19:00,
2013-04-22 10:25:00,40.5,33.5,30.23,ENE,71,4.0,9.0,76,0.00,,,0.00,VWS V14.01,2013-04-22 15:25:00,
2013-04-22 10:30:00,40.0,33.1,30.23,ENE,68,4.0,4.0,76,0.00,,,0.00,VWS V14.01,2013-04-22 15:30:00,
2013-04-22 10:35:00,39.7,32.8,30.23,East,100,6.0,10.0,76,0.00,,,0.00,VWS V14.01,2013-04-22 15:35:00,
2013-04-22 10:40:00,40.1,32.5,30.23,East,85,4.0,10.0,74,0.00,,,0.00,VWS V14.01,2013-04-22 15:40:00,
2013-04-22 10:45:00,40.6,33.3,30.23,East,86,4.0,9.0,75,0.00,,,0.00,VWS V14.01,2013-04-22 15:45:00,
2013-04-22 10:50:00,40.7,33.4,30.22,ENE,67,2.0,11.0,75,0.00,,,0.00,VWS V14.01,2013-04-22 15:50:00,
2013-04-22 10:55:00,40.8,32.8,30.22,East,101,7.0,11.0,73,0.00,,,0.00,VWS V14.01,2013-04-22 15:55:00,
2013-04-22 11:00:00,40.7,33.1,30.22,NE,34,6.0,7.0,74,0.00,,,0.00,VWS V14.01,2013-04-22 16:00:00,
2013-04-22 11:05:00,40.5,32.9,30.22,ESE,105,4.0,10.0,74,0.00,,,0.00,VWS V14.01,2013-04-22 16:05:00,
2013-04-22 11:10:00,40.9,33.3,30.22,SE,134,4.0,11.0,74,0.00,,,0.00,VWS V14.01,2013-04-22 16:10:00,
2013-04-22 11:15:00,41.1,32.8,30.22,ENE,64,5.0,7.0,72,0.00,,,0.00,VWS V14.01,2013-04-22 16:15:00,
2013-04-22 11:20:00,41.2,33.2,30.22,NE,43,5.0,8.0,73,0.00,,,0.00,VWS V14.01,2013-04-22 16:20:00,
2013-04-22 11:26:00,41.2,32.9,30.21,NE,46,6.0,11.0,72,0.00,,,0.00,VWS V14.01,2013-04-22 16:26:00,
2013-04-22 11:30:00,41.5,33.8,30.21,ENE,75,5.0,11.0,74,0.00,,,0.00,VWS V14.01,2013-04-22 16:30:00,
2013-04-22 11:31:00,41.8,33.5,30.21,ENE,68,3.0,8.0,72,0.00,,,0.00,VWS V14.01,2013-04-22 16:31:00,
2013-04-22 11:36:00,41.9,33.5,30.21,NE,48,4.0,12.0,72,0.00,,,0.00,VWS V14.01,2013-04-22 16:36:00,
2013-04-22 11:41:00,41.8,32.8,30.20,ENE,76,5.0,14.0,70,0.00,,,0.00,VWS V14.01,2013-04-22 16:41:00,
2013-04-22 11:45:00,41.6,32.9,30.20,NE,49,7.0,14.0,71,0.00,,,0.00,VWS V14.01,2013-04-22 16:45:00,
2013-04-22 11:46:00,41.5,32.8,30.20,NE,36,4.0,7.0,71,0.00,,,0.00,VWS V14.01,2013-04-22 16:46:00,
2013-04-22 11:51:00,41.3,32.6,30.20,East,94,6.0,10.0,71,0.00,,,0.00,VWS V14.01,2013-04-22 16:51:00,
2013-04-22 11:56:00,41.5,32.8,30.20,ESE,105,7.0,14.0,71,0.00,,,0.00,VWS V14.01,2013-04-22 16:56:00,
2013-04-22 12:00:00,41.7,33.3,30.19,ENE,78,6.0,14.0,72,0.00,,,0.00,VWS V14.01,2013-04-22 17:00:00,
2013-04-22 12:01:00,41.9,33.5,30.19,ENE,58,3.0,7.0,72,0.00,,,0.00,VWS V14.01,2013-04-22 17:01:00,
2013-04-22 12:06:00,42.5,34.1,30.19,SE,134,5.0,7.0,72,0.00,,,0.00,VWS V14.01,2013-04-22 17:06:00,
2013-04-22 12:11:00,42.5,33.8,30.19,NNE,26,4.0,11.0,71,0.00,,,0.00,VWS V14.01,2013-04-22 17:11:00,
2013-04-22 12:15:00,42.5,34.1,30.18,ENE,63,5.0,11.0,72,0.00,,,0.00,VWS V14.01,2013-04-22 17:15:00,
2013-04-22 12:16:00,42.5,33.4,30.18,NE,51,7.0,10.0,70,0.00,,,0.00,VWS V14.01,2013-04-22 17:16:00,
2013-04-22 12:21:00,42.5,34.1,30.17,East,94,12.0,12.0,72,0.00,,,0.00,VWS V14.01,2013-04-22 17:21:00,
2013-04-22 12:26:00,42.2,33.5,30.17,NE,49,8.0,12.0,71,0.00,,,0.00,VWS V14.01,2013-04-22 17:26:00,
2013-04-22 12:30:00,41.9,32.8,30.17,NE,53,6.0,12.0,70,0.00,,,0.00,VWS V14.01,2013-04-22 17:30:00,
2013-04-22 12:32:00,41.9,33.5,30.17,ENE,63,4.0,8.0,72,0.00,,,0.00,VWS V14.01,2013-04-22 17:32:00,
2013-04-22 12:37:00,41.6,32.6,30.17,NE,46,6.0,9.0,70,0.00,,,0.00,VWS V14.01,2013-04-22 17:37:00,
2013-04-22 12:42:00,41.6,33.3,30.16,NE,42,9.0,11.0,72,0.00,,,0.00,VWS V14.01,2013-04-22 17:42:00,
2013-04-22 12:45:00,41.5,33.2,30.16,NE,56,6.0,12.0,72,0.00,,,0.00,VWS V14.01,2013-04-22 17:45:00,
2013-04-22 12:47:00,41.3,32.6,30.15,NNE,30,6.0,15.0,71,0.00,,,0.00,VWS V14.01,2013-04-22 17:47:00,
2013-04-22 12:52:00,41.0,32.7,30.16,ENE,65,7.0,15.0,72,0.00,,,0.00,VWS V14.01,2013-04-22 17:52:00,
2013-04-22 12:57:00,40.8,32.5,30.15,NNE,25,9.0,15.0,72,0.00,,,0.00,VWS V14.01,2013-04-22 17:57:00,
2013-04-22 13:00:00,40.8,32.5,30.15,NE,44,6.0,15.0,72,0.00,,,0.00,VWS V14.01,2013-04-22 18:00:00,
2013-04-22 13:02:00,40.7,32.7,30.16,ENE,60,8.0,10.0,73,0.00,,,0.00,VWS V14.01,2013-04-22 18:02:00,
2013-04-22 13:07:00,40.7,32.0,30.17,NE,43,5.0,11.0,71,0.00,,,0.00,VWS V14.01,2013-04-22 18:07:00,
2013-04-22 13:12:00,40.6,32.3,30.17,NE,55,2.0,11.0,72,0.00,,,0.00,VWS V14.01,2013-04-22 18:12:00,
2013-04-22 13:15:00,40.7,32.4,30.17,East,96,4.0,11.0,72,0.00,,,0.00,VWS V14.01,2013-04-22 18:15:00,
2013-04-22 13:17:00,40.7,32.4,30.17,ESE,102,6.0,6.0,72,0.00,,,0.00,VWS V14.01,2013-04-22 18:17:00,
2013-04-22 13:22:00,40.5,32.5,30.17,NE,51,10.0,10.0,73,0.00,,,0.00,VWS V14.01,2013-04-22 18:22:00,
2013-04-22 13:28:00,40.1,32.5,30.17,ENE,67,3.0,10.0,74,0.00,,,0.00,VWS V14.01,2013-04-22 18:28:00,
2013-04-22 13:30:00,40.0,32.7,30.17,NE,42,5.0,10.0,75,0.00,,,0.00,VWS V14.01,2013-04-22 18:30:00,
2013-04-22 13:33:00,39.8,32.5,30.16,ENE,77,3.0,8.0,75,0.01,,,0.01,VWS V14.01,2013-04-22 18:33:00,
2013-04-22 13:38:00,39.6,33.0,30.16,East,81,1.0,9.0,77,0.01,,,0.01,VWS V14.01,2013-04-22 18:38:00,
2013-04-22 13:43:00,39.3,33.0,30.16,NE,49,2.0,9.0,78,0.01,,,0.01,VWS V14.01,2013-04-22 18:43:00,
2013-04-22 13:45:00,39.3,33.0,30.16,ENE,59,4.0,9.0,78,0.01,,,0.01,VWS V14.01,2013-04-22 18:45:00,
2013-04-22 13:48:00,39.1,33.2,30.16,NE,42,6.0,6.0,79,0.01,,,0.01,VWS V14.01,2013-04-22 18:48:00,
2013-04-22 13:53:00,38.9,33.6,30.16,ENE,78,5.0,6.0,81,0.02,,,0.02,VWS V14.01,2013-04-22 18:53:00,
2013-04-22 13:58:00,38.6,33.6,30.16,NNE,26,4.0,8.0,82,0.02,,,0.02,VWS V14.01,2013-04-22 18:58:00,
2013-04-22 14:00:00,38.6,33.6,30.16,ESE,107,5.0,8.0,82,0.02,,,0.02,VWS V14.01,2013-04-22 19:00:00,
2013-04-22 14:03:00,38.4,34.0,30.17,ENE,75,2.0,5.0,84,0.02,,,0.02,VWS V14.01,2013-04-22 19:03:00,
2013-04-22 14:08:00,38.3,33.9,30.18,ENE,65,2.0,5.0,84,0.02,,,0.02,VWS V14.01,2013-04-22 19:08:00,
2013-04-22 14:13:00,38.0,33.6,30.18,NE,55,2.0,5.0,84,0.02,,,0.02,VWS V14.01,2013-04-22 19:13:00,
2013-04-22 14:15:00,38.0,33.6,30.18,NE,54,3.0,5.0,84,0.02,,,0.02,VWS V14.01,2013-04-22 19:15:00,
2013-04-22 14:18:00,37.8,33.7,30.17,NE,44,2.0,5.0,85,0.03,,,0.03,VWS V14.01,2013-04-22 19:18:00,
2013-04-22 14:23:00,37.6,33.8,30.17,NE,53,5.0,6.0,86,0.04,,,0.04,VWS V14.01,2013-04-22 19:23:00,
2013-04-22 14:29:00,37.2,33.7,30.17,ENE,68,3.0,8.0,87,0.05,,,0.05,VWS V14.01,2013-04-22 19:29:00,
2013-04-22 14:30:00,37.2,33.7,30.17,ENE,64,3.0,8.0,87,0.05,,,0.05,VWS V14.01,2013-04-22 19:30:00,
2013-04-22 14:34:00,36.8,33.6,30.17,NE,44,3.0,5.0,88,0.05,,,0.05,VWS V14.01,2013-04-22 19:34:00,
2013-04-22 14:39:00,36.5,33.6,30.17,NE,50,3.0,10.0,89,0.06,,,0.06,VWS V14.01,2013-04-22 19:39:00,
2013-04-22 14:44:00,36.4,33.8,30.17,NE,46,2.0,3.0,90,0.05,,,0.06,VWS V14.01,2013-04-22 19:44:00,
2013-04-22 14:45:00,36.5,33.8,30.17,NE,46,3.0,10.0,90,0.06,,,0.06,VWS V14.01,2013-04-22 19:45:00,
2013-04-22 14:49:00,36.3,33.7,30.16,NNE,31,6.0,8.0,90,0.06,,,0.07,VWS V14.01,2013-04-22 19:49:00,
2013-04-22 14:54:00,36.1,33.7,30.17,NE,40,1.0,10.0,91,0.06,,,0.07,VWS V14.01,2013-04-22 19:54:00,
2013-04-22 14:59:00,36.1,33.7,30.16,NE,36,5.0,10.0,91,0.06,,,0.08,VWS V14.01,2013-04-22 19:59:00,
2013-04-22 15:00:00,36.1,33.7,30.16,ENE,59,10.0,10.0,91,0.07,,,0.08,VWS V14.01,2013-04-22 20:00:00,
2013-04-22 15:04:00,36.3,34.2,30.16,NE,42,5.0,10.0,92,0.06,,,0.08,VWS V14.01,2013-04-22 20:04:00,
2013-04-22 15:09:00,36.2,34.1,30.16,NE,54,7.0,10.0,92,0.06,,,0.08,VWS V14.01,2013-04-22 20:09:00,
2013-04-22 15:15:00,36.1,34.0,30.16,NE,51,4.0,4.0,92,0.06,,,0.08,VWS V14.01,2013-04-22 20:15:00,
2013-04-22 15:20:00,36.1,34.3,30.16,NE,40,4.0,6.0,93,0.07,,,0.09,VWS V14.01,2013-04-22 20:20:00,
2013-04-22 15:25:00,35.8,34.0,30.16,NNE,22,3.0,6.0,93,0.07,,,0.09,VWS V14.01,2013-04-22 20:25:00,
2013-04-22 15:30:00,35.7,33.9,30.16,NE,42,4.0,6.0,93,0.04,,,0.09,VWS V14.01,2013-04-22 20:30:00,
2013-04-22 15:35:00,35.5,33.7,30.16,NNE,31,7.0,7.0,93,0.04,,,0.09,VWS V14.01,2013-04-22 20:35:00,
2013-04-22 15:40:00,35.6,34.0,30.16,NE,42,3.0,7.0,94,0.05,,,0.10,VWS V14.01,2013-04-22 20:40:00,
2013-04-22 15:45:00,35.6,33.8,30.16,NE,49,7.0,7.0,93,0.04,,,0.10,VWS V14.01,2013-04-22 20:45:00,
2013-04-22 15:50:00,35.6,34.0,30.15,NE,54,4.0,7.0,94,0.04,,,0.10,VWS V14.01,2013-04-22 20:50:00,
2013-04-22 15:55:00,35.5,34.0,30.15,NE,42,3.0,8.0,94,0.04,,,0.10,VWS V14.01,2013-04-22 20:55:00,
2013-04-22 16:00:00,35.4,33.8,30.15,ENE,61,2.0,7.0,94,0.03,,,0.11,VWS V14.01,2013-04-22 21:00:00,
2013-04-22 16:06:00,35.3,33.8,30.14,ENE,61,5.0,11.0,94,0.03,,,0.11,VWS V14.01,2013-04-22 21:06:00,
2013-04-22 16:11:00,35.1,33.5,30.14,NE,46,3.0,11.0,94,0.03,,,0.11,VWS V14.01,2013-04-22 21:11:00,
2013-04-22 16:15:00,35.1,33.5,30.14,ENE,61,7.0,11.0,94,0.04,,,0.12,VWS V14.01,2013-04-22 21:15:00,
2013-04-22 16:16:00,35.1,33.5,30.14,NE,44,6.0,10.0,94,0.04,,,0.12,VWS V14.01,2013-04-22 21:16:00,
2013-04-22 16:21:00,35.1,33.5,30.13,NE,43,5.0,10.0,94,0.04,,,0.12,VWS V14.01,2013-04-22 21:21:00,
2013-04-22 16:26:00,35.1,33.5,30.13,NE,44,5.0,10.0,94,0.04,,,0.12,VWS V14.01,2013-04-22 21:26:00,
2013-04-22 16:30:00,35.1,33.5,30.13,NE,52,7.0,10.0,94,0.04,,,0.12,VWS V14.01,2013-04-22 21:30:00,
2013-04-22 16:31:00,35.1,33.5,30.14,NE,48,3.0,7.0,94,0.03,,,0.12,VWS V14.01,2013-04-22 21:31:00,
2013-04-22 16:36:00,35.0,33.5,30.14,ENE,71,4.0,10.0,94,0.04,,,0.13,VWS V14.01,2013-04-22 21:36:00,
2013-04-22 16:41:00,34.8,33.2,30.14,NE,55,7.0,11.0,94,0.04,,,0.13,VWS V14.01,2013-04-22 21:41:00,
2013-04-22 16:45:00,34.7,33.2,30.14,NE,49,11.0,11.0,94,0.04,,,0.13,VWS V14.01,2013-04-22 21:45:00,
2013-04-22 16:46:00,34.7,33.2,30.13,NE,53,11.0,12.0,94,0.03,,,0.13,VWS V14.01,2013-04-22 21:46:00,
2013-04-22 16:51:00,34.5,33.0,30.13,East,80,6.0,13.0,94,0.03,,,0.13,VWS V14.01,2013-04-22 21:51:00,
2013-04-22 16:56:00,34.4,32.9,30.13,NNE,24,4.0,13.0,94,0.04,,,0.14,VWS V14.01,2013-04-22 21:56:00,
2013-04-22 17:00:00,34.2,32.7,30.13,ENE,67,4.0,13.0,94,0.04,,,0.14,VWS V14.01,2013-04-22 22:00:00,
2013-04-22 17:01:00,34.1,32.6,30.13,NNE,32,5.0,10.0,94,0.03,,,0.14,VWS V14.01,2013-04-22 22:01:00,
2013-04-22 17:06:00,34.0,32.5,30.14,NE,36,5.0,10.0,94,0.03,,,0.14,VWS V14.01,2013-04-22 22:06:00,
2013-04-22 17:12:00,33.8,32.3,30.14,NE,38,3.0,10.0,94,0.03,,,0.14,VWS V14.01,2013-04-22 22:12:00,
2013-04-22 17:15:00,33.7,32.2,30.14,NNE,27,4.0,10.0,94,0.03,,,0.14,VWS V14.01,2013-04-22 22:15:00,
2013-04-22 17:17:00,33.5,32.0,30.14,NE,46,3.0,6.0,94,0.02,,,0.14,VWS V14.01,2013-04-22 22:17:00,
2013-04-22 17:22:00,33.4,31.9,30.14,NNE,12,2.0,6.0,94,0.02,,,0.14,VWS V14.01,2013-04-22 22:22:00,
2013-04-22 17:27:00,33.3,32.0,30.15,North,9,5.0,6.0,95,0.02,,,0.14,VWS V14.01,2013-04-22 22:27:00,
2013-04-22 17:30:00,33.3,32.0,30.15,NNE,12,3.0,6.0,95,0.02,,,0.14,VWS V14.01,2013-04-22 22:30:00,
2013-04-22 17:32:00,33.2,31.9,30.15,NE,37,2.0,6.0,95,0.02,,,0.14,VWS V14.01,2013-04-22 22:32:00,
2013-04-22 17:37:00,33.2,31.9,30.15,North,11,2.0,6.0,95,0.02,,,0.14,VWS V14.01,2013-04-22 22:37:00,
2013-04-22 17:42:00,33.1,31.8,30.15,North,5,2.0,6.0,95,0.02,,,0.14,VWS V14.01,2013-04-22 22:42:00,
2013-04-22 17:45:00,33.1,31.8,30.15,North,11,3.0,6.0,95,0.02,,,0.14,VWS V14.01,2013-04-22 22:45:00,
2013-04-22 17:47:00,33.1,31.8,30.15,NE,38,2.0,5.0,95,0.01,,,0.14,VWS V14.01,2013-04-22 22:47:00,
2013-04-22 17:52:00,33.0,31.7,30.14,ENE,64,4.0,5.0,95,0.01,,,0.14,VWS V14.01,2013-04-22 22:52:00,
2013-04-22 17:57:00,33.0,31.7,30.15,North,9,2.0,5.0,95,0.01,,,0.14,VWS V14.01,2013-04-22 22:57:00,
2013-04-22 18:00:00,33.0,32.0,30.15,NNE,30,4.0,5.0,96,0.01,,,0.14,VWS V14.01,2013-04-22 23:00:00,
2013-04-22 18:02:00,33.0,31.7,30.15,ENE,57,2.0,4.0,95,0.00,,,0.14,VWS V14.01,2013-04-22 23:02:00,
2013-04-22 18:07:00,32.9,31.6,30.15,NNE,30,3.0,5.0,95,0.00,,,0.14,VWS V14.01,2013-04-22 23:07:00,
2013-04-22 18:13:00,32.9,31.6,30.15,NE,40,4.0,5.0,95,0.00,,,0.14,VWS V14.01,2013-04-22 23:13:00,
2013-04-22 18:15:00,32.9,31.6,30.15,NNE,31,3.0,5.0,95,0.00,,,0.14,VWS V14.01,2013-04-22 23:15:00,
2013-04-22 18:18:00,32.9,31.9,30.15,ENE,61,2.0,4.0,96,0.00,,,0.14,VWS V14.01,2013-04-22 23:18:00,
2013-04-22 18:23:00,32.9,31.9,30.15,North,360,2.0,4.0,96,0.00,,,0.14,VWS V14.01,2013-04-22 23:23:00,
2013-04-22 18:28:00,32.9,31.9,30.15,NNE,28,3.0,5.0,96,0.00,,,0.14,VWS V14.01,2013-04-22 23:28:00,
2013-04-22 18:30:00,32.9,31.9,30.15,NNE,26,2.0,5.0,96,0.00,,,0.14,VWS V14.01,2013-04-22 23:30:00,
2013-04-22 18:33:00,32.9,31.9,30.15,North,9,4.0,4.0,96,0.00,,,0.14,VWS V14.01,2013-04-22 23:33:00,
2013-04-22 18:38:00,32.9,31.9,30.15,NNE,25,2.0,5.0,96,0.00,,,0.14,VWS V14.01,2013-04-22 23:38:00,
2013-04-22 18:43:00,32.9,31.9,30.15,North,9,4.0,6.0,96,0.01,,,0.15,VWS V14.01,2013-04-22 23:43:00,
2013-04-22 18:45:00,32.9,31.9,30.15,North,9,2.0,6.0,96,0.01,,,0.15,VWS V14.01,2013-04-22 23:45:00,
2013-04-22 18:48:00,32.9,31.9,30.15,NNE,29,3.0,4.0,96,0.01,,,0.15,VWS V14.01,2013-04-22 23:48:00,
2013-04-22 18:53:00,32.8,31.8,30.14,NNE,25,4.0,5.0,96,0.01,,,0.15,VWS V14.01,2013-04-22 23:53:00,
2013-04-22 18:58:00,32.8,31.8,30.15,NNW,348,3.0,5.0,96,0.01,,,0.15,VWS V14.01,2013-04-22 23:58:00,
2013-04-22 19:00:00,32.9,31.9,30.15,NNW,348,1.0,5.0,96,0.01,,,0.15,VWS V14.01,2013-04-23 00:00:00,
2013-04-22 19:03:00,32.8,31.8,30.15,NNE,12,1.0,5.0,96,0.01,,,0.15,VWS V14.01,2013-04-23 00:03:00,
2013-04-22 19:08:00,32.8,31.8,30.15,North,355,5.0,6.0,96,0.01,,,0.15,VWS V14.01,2013-04-23 00:08:00,
2013-04-22 19:13:00,32.8,31.8,30.15,North,350,2.0,6.0,96,0.01,,,0.15,VWS V14.01,2013-04-23 00:13:00,
2013-04-22 19:15:00,32.8,31.8,30.15,NNW,346,5.0,6.0,96,0.01,,,0.15,VWS V14.01,2013-04-23 00:15:00,
2013-04-22 19:19:00,32.8,31.8,30.15,North,355,4.0,6.0,96,0.01,,,0.15,VWS V14.01,2013-04-23 00:19:00,
2013-04-22 19:24:00,32.8,31.8,30.15,North,360,2.0,6.0,96,0.01,,,0.15,VWS V14.01,2013-04-23 00:24:00,
2013-04-22 19:29:00,32.8,31.8,30.15,North,10,2.0,6.0,96,0.01,,,0.15,VWS V14.01,2013-04-23 00:29:00,
2013-04-22 19:30:00,32.8,31.8,30.15,North,10,2.0,6.0,96,0.01,,,0.15,VWS V14.01,2013-04-23 00:30:00,
2013-04-22 19:34:00,32.8,31.8,30.15,North,355,3.0,5.0,96,0.01,,,0.15,VWS V14.01,2013-04-23 00:34:00,
2013-04-22 19:39:00,32.8,31.8,30.15,North,5,3.0,6.0,96,0.01,,,0.15,VWS V14.01,2013-04-23 00:39:00,
2013-04-22 19:44:00,32.7,31.7,30.15,North,355,4.0,4.0,96,0.00,,,0.15,VWS V14.01,2013-04-23 00:44:00,
2013-04-22 19:45:00,32.7,31.7,30.15,North,351,4.0,6.0,96,0.01,,,0.15,VWS V14.01,2013-04-23 00:45:00,
2013-04-22 19:49:00,32.7,31.7,30.15,NNE,12,4.0,5.0,96,0.00,,,0.15,VWS V14.01,2013-04-23 00:49:00,
2013-04-22 19:54:00,32.7,31.7,30.15,North,349,6.0,7.0,96,0.00,,,0.15,VWS V14.01,2013-04-23 00:54:00,
2013-04-22 19:59:00,32.6,31.6,30.15,North,5,3.0,4.0,96,0.00,,,0.15,VWS V14.01,2013-04-23 00:59:00,
2013-04-22 20:00:00,32.7,31.7,30.15,North,5,4.0,7.0,96,0.00,,,0.15,VWS V14.01,2013-04-23 01:00:00,
2013-04-22 20:04:00,32.6,31.6,30.16,NNE,26,3.0,5.0,96,0.00,,,0.15,VWS V14.01,2013-04-23 01:04:00,
2013-04-22 20:09:00,32.6,31.6,30.16,North,11,3.0,6.0,96,0.00,,,0.15,VWS V14.01,2013-04-23 01:09:00,
2013-04-22 20:14:00,32.6,31.6,30.16,NNE,25,2.0,3.0,96,0.00,,,0.15,VWS V14.01,2013-04-23 01:14:00,
2013-04-22 20:15:00,32.6,31.6,30.16,NNE,28,2.0,6.0,96,0.00,,,0.15,VWS V14.01,2013-04-23 01:15:00,
2013-04-22 20:20:00,32.6,31.6,30.16,NNE,22,3.0,4.0,96,0.00,,,0.15,VWS V14.01,2013-04-23 01:20:00,
2013-04-22 20:25:00,32.6,31.6,30.16,NNE,21,2.0,5.0,96,0.00,,,0.15,VWS V14.01,2013-04-23 01:25:00,
2013-04-22 20:30:00,32.6,31.6,30.16,NNE,21,2.0,3.0,96,0.00,,,0.15,VWS V14.01,2013-04-23 01:30:00,
2013-04-22 20:35:00,32.6,31.6,30.16,NNE,21,3.0,3.0,96,0.00,,,0.15,VWS V14.01,2013-04-23 01:35:00,
2013-04-22 20:40:00,32.6,31.6,30.16,NNE,21,3.0,5.0,96,0.00,,,0.15,VWS V14.01,2013-04-23 01:40:00,
2013-04-22 20:45:00,32.5,31.5,30.16,NNE,21,3.0,4.0,96,0.00,,,0.15,VWS V14.01,2013-04-23 01:45:00,
2013-04-22 20:50:00,32.6,31.6,30.16,NNE,21,0.0,4.0,96,0.00,,,0.15,VWS V14.01,2013-04-23 01:50:00,
2013-04-22 20:56:00,32.5,31.5,30.16,NNE,21,0.0,4.0,96,0.00,,,0.15,VWS V14.01,2013-04-23 01:56:00,
2013-04-22 21:00:00,32.5,31.5,30.16,NNE,21,0.0,4.0,96,0.00,,,0.15,VWS V14.01,2013-04-23 02:00:00,
2013-04-22 21:01:00,32.5,31.5,30.16,NNE,21,0.0,0.0,96,0.00,,,0.15,VWS V14.01,2013-04-23 02:01:00,
2013-04-22 21:06:00,32.5,31.5,30.16,NNE,21,0.0,0.0,96,0.00,,,0.15,VWS V14.01,2013-04-23 02:06:00,
2013-04-22 21:11:00,32.5,31.5,30.16,NNE,21,0.0,0.0,96,0.00,,,0.15,VWS V14.01,2013-04-23 02:11:00,
2013-04-22 21:15:00,32.5,31.5,30.16,NNE,21,0.0,0.0,96,0.00,,,0.15,VWS V14.01,2013-04-23 02:15:00,
2013-04-22 21:16:00,32.5,31.5,30.16,NNE,21,0.0,0.0,96,0.00,,,0.15,VWS V14.01,2013-04-23 02:16:00,
2013-04-22 21:21:00,32.5,31.5,30.16,NNE,21,0.0,0.0,96,0.00,,,0.15,VWS V14.01,2013-04-23 02:21:00,
2013-04-22 21:26:00,32.4,31.4,30.16,NNE,21,0.0,0.0,96,0.00,,,0.15,VWS V14.01,2013-04-23 02:26:00,
2013-04-22 21:30:00,32.4,31.4,30.16,NNE,21,0.0,0.0,96,0.00,,,0.15,VWS V14.01,2013-04-23 02:30:00,
2013-04-22 21:31:00,32.4,31.6,30.16,NNE,21,0.0,0.0,97,0.00,,,0.15,VWS V14.01,2013-04-23 02:31:00,
2013-04-22 21:36:00,32.3,31.5,30.16,NNE,21,0.0,0.0,97,0.00,,,0.15,VWS V14.01,2013-04-23 02:36:00,
2013-04-22 21:41:00,32.3,31.5,30.16,NNE,21,0.0,0.0,97,0.00,,,0.15,VWS V14.01,2013-04-23 02:41:00,
2013-04-22 21:45:00,32.3,31.3,30.17,NNE,21,0.0,0.0,96,0.00,,,0.15,VWS V14.01,2013-04-23 02:45:00,
2013-04-22 21:46:00,32.3,31.3,30.17,NNE,21,0.0,0.0,96,0.00,,,0.15,VWS V14.01,2013-04-23 02:46:00,
2013-04-22 21:51:00,32.3,31.3,30.16,NNE,21,0.0,0.0,96,0.00,,,0.15,VWS V14.01,2013-04-23 02:51:00,
2013-04-22 21:57:00,32.3,31.3,30.16,NNE,21,0.0,0.0,96,0.00,,,0.15,VWS V14.01,2013-04-23 02:57:00,
2013-04-22 22:00:00,32.3,31.3,30.16,NNE,21,0.0,0.0,96,0.00,,,0.15,VWS V14.01,2013-04-23 03:00:00,
2013-04-22 22:02:00,32.3,31.3,30.16,NNE,21,0.0,0.0,96,0.00,,,0.15,VWS V14.01,2013-04-23 03:02:00,
2013-04-22 22:07:00,32.3,31.3,30.16,NNE,21,0.0,0.0,96,0.00,,,0.15,VWS V14.01,2013-04-23 03:07:00,
2013-04-22 22:12:00,32.3,31.3,30.16,NNE,21,0.0,0.0,96,0.00,,,0.15,VWS V14.01,2013-04-23 03:12:00,
2013-04-22 22:15:00,32.3,31.3,30.16,NNE,21,0.0,0.0,96,0.00,,,0.15,VWS V14.01,2013-04-23 03:15:00,
2013-04-22 22:17:00,32.3,31.3,30.17,NNE,21,0.0,0.0,96,0.00,,,0.15,VWS V14.01,2013-04-23 03:17:00,
2013-04-22 22:22:00,32.2,31.2,30.17,NNE,21,0.0,0.0,96,0.00,,,0.15,VWS V14.01,2013-04-23 03:22:00,
2013-04-22 22:27:00,32.2,31.2,30.17,NNE,21,0.0,0.0,96,0.00,,,0.15,VWS V14.01,2013-04-23 03:27:00,
2013-04-22 22:30:00,32.2,31.5,30.17,NNE,21,0.0,0.0,97,0.00,,,0.15,VWS V14.01,2013-04-23 03:30:00,
2013-04-22 22:32:00,32.2,31.5,30.17,NNE,21,0.0,0.0,97,0.00,,,0.15,VWS V14.01,2013-04-23 03:32:00,
2013-04-22 22:37:00,32.2,31.5,30.18,NNE,21,0.0,0.0,97,0.00,,,0.15,VWS V14.01,2013-04-23 03:37:00,
2013-04-22 22:42:00,32.2,31.5,30.18,NNE,21,0.0,0.0,97,0.00,,,0.15,VWS V14.01,2013-04-23 03:42:00,
2013-04-22 22:45:00,32.2,31.5,30.18,NNE,21,0.0,0.0,97,0.00,,,0.15,VWS V14.01,2013-04-23 03:45:00,
2013-04-22 22:48:00,32.1,31.4,30.18,NNE,21,0.0,0.0,97,0.00,,,0.15,VWS V14.01,2013-04-23 03:48:00,
2013-04-22 22:53:00,32.1,31.4,30.18,NNE,21,0.0,0.0,97,0.00,,,0.15,VWS V14.01,2013-04-23 03:53:00,
2013-04-22 22:58:00,32.1,31.4,30.18,NNE,21,0.0,0.0,97,0.00,,,0.15,VWS V14.01,2013-04-23 03:58:00,
2013-04-22 23:00:00,32.1,31.4,30.18,NNE,21,0.0,0.0,97,0.00,,,0.15,VWS V14.01,2013-04-23 04:00:00,
2013-04-22 23:01:00,32.1,31.4,30.18,NNE,21,0.0,0.0,97,0.00,,,0.15,VWS V14.01,2013-04-23 04:01:00,
2013-04-22 23:03:00,32.1,31.4,30.18,NNE,21,0.0,0.0,97,0.00,,,0.15,VWS V14.01,2013-04-23 04:03:00,
2013-04-22 23:05:00,32.1,31.4,30.18,NNE,21,0.0,0.0,97,0.00,,,0.15,VWS V14.01,2013-04-23 04:05:00,
2013-04-22 23:10:00,32.1,31.4,30.18,NNE,21,0.0,0.0,97,0.00,,,0.15,VWS V14.01,2013-04-23 04:10:00,
2013-04-22 23:15:00,32.0,31.2,30.18,NNE,21,0.0,0.0,97,0.00,,,0.15,VWS V14.01,2013-04-23 04:15:00,
2013-04-22 23:20:00,32.0,31.2,30.18,NNE,21,0.0,0.0,97,0.00,,,0.15,VWS V14.01,2013-04-23 04:20:00,
2013-04-22 23:25:00,32.0,31.2,30.17,NNE,21,0.0,0.0,97,0.00,,,0.15,VWS V14.01,2013-04-23 04:25:00,
2013-04-22 23:30:00,31.9,31.1,30.18,NNE,21,0.0,0.0,97,0.00,,,0.15,VWS V14.01,2013-04-23 04:30:00,
2013-04-22 23:35:00,31.9,31.1,30.17,NNE,21,0.0,0.0,97,0.00,,,0.15,VWS V14.01,2013-04-23 04:35:00,
2013-04-22 23:40:00,31.9,31.1,30.17,NNE,21,0.0,0.0,97,0.00,,,0.15,VWS V14.01,2013-04-23 04:40:00,
2013-04-22 23:45:00,31.9,31.1,30.17,NNE,21,0.0,0.0,97,0.00,,,0.15,VWS V14.01,2013-04-23 04:45:00,
2013-04-22 23:50:00,31.9,31.1,30.17,NNE,21,0.0,0.0,97,0.00,,,0.15,VWS V14.01,2013-04-23 04:50:00,
2013-04-22 23:55:00,31.9,31.1,30.17,NNE,21,0.0,0.0,97,0.00,,,0.15,VWS V14.01,2013-04-23 04:55:00,